| time (UTC) | temp F | wind direction | speed MPH | gust MPH | rain 1hr in | rain 24hr in | rain mn in | humidity % | barometer mb |
| 20260905234511 | 53 | 260 | 0.0 | 2.0 | 0.00 | 0.00 | 0.00 | 88 | 1026.0 |
| 20260905233010 | 53 | 0 | 0.0 | 2.0 | 0.00 | 0.00 | 0.00 | 88 | 1026.2 |
| 20260905231510 | 54 | 0 | 0.0 | 2.0 | 0.00 | 0.00 | 0.00 | 87 | 1026.0 |
| 20260905230010 | 54 | 292 | 0.0 | 2.0 | 0.00 | 0.00 | 0.00 | 86 | 1026.2 |
| 20260905224512 | 55 | 284 | 0.0 | 2.0 | 0.00 | 0.00 | 0.00 | 85 | 1025.9 |
| 20260905223010 | 55 | 248 | 0.0 | 2.0 | 0.00 | 0.00 | 0.00 | 85 | 1025.8 |
| 20260905220011 | 56 | 289 | 1.0 | 2.0 | 0.00 | 0.00 | 0.00 | 82 | 1025.6 |
| 20260905214511 | 56 | 283 | 1.0 | 2.0 | 0.00 | 0.00 | 0.00 | 82 | 1025.4 |
| 20260905213011 | 56 | 281 | 0.0 | 2.0 | 0.00 | 0.00 | 0.00 | 81 | 1025.4 |
| 20260905211512 | 57 | 282 | 1.0 | 2.0 | 0.00 | 0.00 | 0.00 | 79 | 1025.3 |
| 20260905210010 | 57 | 277 | 1.0 | 2.0 | 0.00 | 0.00 | 0.00 | 78 | 1025.4 |
| 20260905203010 | 58 | 275 | 1.0 | 2.0 | 0.00 | 0.00 | 0.00 | 76 | 1025.3 |
| 20260905201513 | 59 | 275 | 1.0 | 4.0 | 0.00 | 0.00 | 0.00 | 74 | 1025.0 |
| 20260905200011 | 60 | 287 | 2.0 | 6.0 | 0.00 | 0.00 | 0.00 | 72 | 1024.7 |
| 20260905194512 | 60 | 281 | 2.0 | 6.0 | 0.00 | 0.00 | 0.00 | 72 | 1024.8 |
| 20260905193011 | 61 | 275 | 2.0 | 6.0 | 0.00 | 0.00 | 0.00 | 72 | 1024.9 |
| 20260905191511 | 61 | 277 | 1.0 | 4.0 | 0.00 | 0.00 | 0.00 | 73 | 1024.6 |
| 20260905190012 | 61 | 285 | 1.0 | 4.0 | 0.00 | 0.00 | 0.00 | 72 | 1024.4 |
| 20260905184513 | 62 | 295 | 2.0 | 6.0 | 0.00 | 0.00 | 0.00 | 71 | 1024.3 |
| 20260905183012 | 62 | 301 | 3.0 | 9.0 | 0.00 | 0.00 | 0.00 | 69 | 1024.1 |
| 20260905181511 | 63 | 294 | 3.0 | 8.0 | 0.00 | 0.00 | 0.00 | 68 | 1024.1 |
| 20260905180011 | 64 | 315 | 3.0 | 8.0 | 0.00 | 0.00 | 0.00 | 67 | 1024.0 |
| 20260905174512 | 64 | 300 | 4.0 | 11.0 | 0.00 | 0.00 | 0.00 | 65 | 1024.0 |
| 20260905171511 | 65 | 307 | 3.0 | 13.0 | 0.00 | 0.00 | 0.00 | 65 | 1023.7 |
| 20260905170010 | 66 | 301 | 3.0 | 11.0 | 0.00 | 0.00 | 0.00 | 64 | 1023.3 |
| 20260905164512 | 66 | 293 | 4.0 | 15.0 | 0.00 | 0.00 | 0.00 | 65 | 1023.2 |
| 20260905163011 | 66 | 298 | 5.0 | 11.0 | 0.00 | 0.00 | 0.00 | 64 | 1022.8 |
| 20260905161513 | 67 | 271 | 5.0 | 14.0 | 0.00 | 0.00 | 0.00 | 65 | 1022.9 |
| 20260905160011 | 68 | 290 | 3.0 | 9.0 | 0.00 | 0.00 | 0.00 | 64 | 1022.5 |
| 20260905154512 | 67 | 288 | 5.0 | 15.0 | 0.00 | 0.00 | 0.00 | 65 | 1022.5 |
| 20260905153010 | 67 | 313 | 5.0 | 14.0 | 0.00 | 0.00 | 0.00 | 65 | 1022.1 |
| 20260905151511 | 68 | 296 | 4.0 | 14.0 | 0.00 | 0.00 | 0.00 | 64 | 1022.3 |
| 20260905150010 | 68 | 295 | 4.0 | 13.0 | 0.00 | 0.00 | 0.00 | 63 | 1021.9 |
| 20260905144513 | 70 | 307 | 5.0 | 15.0 | 0.00 | 0.00 | 0.00 | 60 | 1021.8 |
| 20260905143011 | 70 | 281 | 5.0 | 14.0 | 0.00 | 0.04 | 0.00 | 61 | 1021.7 |
| 20260905141512 | 69 | 284 | 4.0 | 11.0 | 0.00 | 0.05 | 0.00 | 62 | 1021.8 |
| 20260905140011 | 67 | 301 | 3.0 | 8.0 | 0.00 | 0.05 | 0.00 | 64 | 1021.3 |
| 20260905133013 | 69 | 309 | 5.0 | 11.0 | 0.00 | 0.06 | 0.00 | 62 | 1021.2 |
| 20260905131512 | 71 | 303 | 6.0 | 16.0 | 0.00 | 0.07 | 0.00 | 61 | 1021.1 |
| 20260905130013 | 71 | 279 | 9.0 | 23.0 | 0.00 | 0.07 | 0.00 | 53 | 1020.7 |
| 20260905123012 | 71 | 305 | 8.0 | 20.0 | 0.00 | 0.18 | 0.00 | 56 | 1020.5 |
| 20260905121514 | 71 | 270 | 8.0 | 17.0 | 0.00 | 0.22 | 0.00 | 55 | 1020.4 |
| 20260905120013 | 71 | 283 | 5.0 | 18.0 | 0.00 | 0.31 | 0.00 | 59 | 1020.2 |
| 20260905114514 | 69 | 272 | 7.0 | 18.0 | 0.00 | 0.31 | 0.00 | 63 | 1020.2 |
| 20260905113012 | 68 | 291 | 5.0 | 11.0 | 0.00 | 0.31 | 0.00 | 65 | 1020.1 |
| 20260905111513 | 66 | 299 | 3.0 | 14.0 | 0.00 | 0.31 | 0.00 | 71 | 1020.2 |
| 20260905110012 | 67 | 276 | 4.0 | 17.0 | 0.00 | 0.31 | 0.00 | 69 | 1019.9 |
| 20260905104513 | 67 | 287 | 6.0 | 17.0 | 0.00 | 0.31 | 0.00 | 68 | 1019.7 |
| 20260905101513 | 67 | 281 | 6.0 | 15.0 | 0.00 | 0.31 | 0.00 | 69 | 1019.3 |
| 20260905100013 | 66 | 270 | 7.0 | 16.0 | 0.00 | 0.31 | 0.00 | 72 | 1019.4 |
| 20260905094512 | 67 | 270 | 5.0 | 17.0 | 0.00 | 0.31 | 0.00 | 72 | 1019.1 |
| 20260905091512 | 66 | 278 | 6.0 | 20.0 | 0.00 | 0.31 | 0.00 | 73 | 1018.7 |
| 20260905090011 | 66 | 289 | 7.0 | 18.0 | 0.00 | 0.31 | 0.00 | 75 | 1018.8 |
| 20260905084512 | 66 | 282 | 5.0 | 14.0 | 0.00 | 0.31 | 0.00 | 75 | 1018.7 |
| 20260905083012 | 66 | 274 | 5.0 | 13.0 | 0.00 | 0.31 | 0.00 | 76 | 1018.4 |
| 20260905080012 | 64 | 298 | 5.0 | 16.0 | 0.00 | 0.31 | 0.00 | 78 | 1018.2 |
| 20260905074513 | 65 | 263 | 4.0 | 11.0 | 0.00 | 0.31 | 0.00 | 78 | 1018.1 |
| 20260905073011 | 63 | 300 | 5.0 | 16.0 | 0.00 | 0.31 | 0.00 | 80 | 1018.1 |
| 20260905071512 | 62 | 279 | 5.0 | 13.0 | 0.00 | 0.31 | 0.00 | 81 | 1017.6 |
| 20260905070011 | 62 | 282 | 3.0 | 11.0 | 0.00 | 0.31 | 0.00 | 82 | 1017.6 |
| 20260905064513 | 60 | 273 | 3.0 | 8.0 | 0.00 | 0.31 | 0.00 | 84 | 1017.5 |
| 20260905063011 | 60 | 286 | 2.0 | 6.0 | 0.00 | 0.31 | 0.00 | 85 | 1017.6 |
| 20260905061512 | 58 | 274 | 3.0 | 11.0 | 0.00 | 0.31 | 0.00 | 87 | 1017.5 |
| 20260905060012 | 57 | 298 | 2.0 | 11.0 | 0.00 | 0.31 | 0.00 | 89 | 1017.2 |
| 20260905053011 | 56 | 256 | 3.0 | 8.0 | 0.00 | 0.31 | 0.00 | 91 | 1017.0 |
| 20260905051513 | 55 | 263 | 3.0 | 7.0 | 0.00 | 0.31 | 0.00 | 92 | 1016.6 |
| 20260905050011 | 55 | 259 | 2.0 | 7.0 | 0.00 | 0.31 | 0.00 | 92 | 1017.0 |
| 20260905043011 | 55 | 256 | 3.0 | 8.0 | 0.00 | 0.31 | 0.00 | 92 | 1016.6 |
| 20260905041511 | 55 | 263 | 2.0 | 8.0 | 0.00 | 0.31 | 0.00 | 92 | 1016.5 |
| 20260905040011 | 55 | 266 | 3.0 | 6.0 | 0.00 | 0.31 | 0.00 | 92 | 1016.3 |
| 20260905034513 | 56 | 260 | 3.0 | 8.0 | 0.00 | 0.31 | 0.00 | 92 | 1016.1 |
| 20260905033013 | 56 | 261 | 3.0 | 7.0 | 0.00 | 0.31 | 0.00 | 92 | 1016.1 |
| 20260905024515 | 56 | 251 | 3.0 | 7.0 | 0.00 | 0.31 | 0.00 | 91 | 1015.8 |
| 20260905023012 | 56 | 262 | 3.0 | 8.0 | 0.00 | 0.31 | 0.00 | 90 | 1015.7 |
| 20260905021513 | 56 | 253 | 3.0 | 7.0 | 0.00 | 0.31 | 0.00 | 91 | 1015.7 |
| 20260905020012 | 56 | 254 | 3.0 | 7.0 | 0.00 | 0.31 | 0.00 | 90 | 1015.7 |
| 20260905014513 | 57 | 249 | 3.0 | 7.0 | 0.00 | 0.31 | 0.00 | 90 | 1015.8 |
| 20260905013011 | 57 | 264 | 2.0 | 7.0 | 0.00 | 0.31 | 0.00 | 90 | 1015.7 |
| 20260905011512 | 57 | 270 | 2.0 | 7.0 | 0.00 | 0.31 | 0.00 | 89 | 1015.6 |
| 20260905010011 | 57 | 250 | 3.0 | 7.0 | 0.00 | 0.31 | 0.00 | 89 | 1015.6 |
| 20260905004513 | 57 | 260 | 2.0 | 6.0 | 0.00 | 0.31 | 0.00 | 89 | 1015.6 |
| 20260905003011 | 58 | 269 | 2.0 | 6.0 | 0.00 | 0.31 | 0.00 | 88 | 1015.6 |
| 20260905001511 | 58 | 247 | 3.0 | 7.0 | 0.00 | 0.31 | 0.00 | 88 | 1015.4 |
| 20260905000012 | 58 | 245 | 3.0 | 7.0 | 0.00 | 0.31 | 0.00 | 88 | 1015.5 |